Time;durP1;ratioP1;P1;durP2;ratioP2;P2;SDS_P1;SDS_P2;PMS_P1;PMS_P2;Temp;Humidity;BMP_temperature;BMP_pressure;BME280_temperature;BME280_humidity;BME280_pressure;Samples;Min_cycle;Max_cycle;Signal;HPM_P1;HPM_P2
2021/09/06 00:02:05;;;;;;;26.85;16.23;;;;;;;10.82;90.86;102491.41;4996529;28;20510;-73
2021/09/06 00:04:32;;;;;;;28.70;17.13;;;;;;;10.81;91.17;102488.84;4995455;28;20050;-73
2021/09/06 00:06:57;;;;;;;22.55;14.02;;;;;;;10.77;90.86;102483.72;4996268;28;20023;-73
2021/09/06 00:09:23;;;;;;;22.33;14.35;;;;;;;10.76;90.99;102489.16;4995867;28;20044;-71
2021/09/06 00:11:48;;;;;;;25.15;15.25;;;;;;;10.74;91.10;102494.59;4996498;28;20069;-72
2021/09/06 00:14:14;;;;;;;31.92;17.75;;;;;;;10.73;91.22;102484.91;5010946;28;20030;-72
2021/09/06 00:16:39;;;;;;;30.13;18.02;;;;;;;10.71;91.21;102484.13;4995033;28;20026;-72
2021/09/06 00:19:04;;;;;;;35.85;20.45;;;;;;;10.72;91.82;102491.19;5011216;28;20030;-72
2021/09/06 00:21:31;;;;;;;32.67;19.15;;;;;;;10.70;91.62;102486.91;4995602;28;20458;-72
2021/09/06 00:23:57;;;;;;;37.60;21.55;;;;;;;10.71;92.85;102488.63;4995818;28;20038;-72
2021/09/06 00:26:22;;;;;;;46.05;24.58;;;;;;;10.70;93.15;102486.91;4994354;28;20034;-72
2021/09/06 00:28:48;;;;;;;49.13;26.25;;;;;;;10.69;93.27;102485.19;4995805;28;20069;-72
2021/09/06 00:31:14;;;;;;;38.88;22.27;;;;;;;10.67;93.51;102485.28;4995377;28;20030;-73
2021/09/06 00:33:41;;;;;;;46.50;22.67;;;;;;;10.68;94.00;102491.47;4996122;28;20112;-72
2021/09/06 00:36:06;;;;;;;28.35;17.20;;;;;;;10.65;93.52;102494.34;4996043;28;20086;-72
2021/09/06 00:38:31;;;;;;;37.58;22.38;;;;;;;10.64;93.63;102492.63;4995280;28;20153;-72
2021/09/06 00:40:57;;;;;;;34.25;19.63;;;;;;;10.60;93.19;102489.31;4995654;28;20370;-72
2021/09/06 00:43:22;;;;;;;30.27;18.40;;;;;;;10.57;92.78;102487.69;4995179;28;20023;-72
2021/09/06 00:45:48;;;;;;;29.75;17.40;;;;;;;10.57;92.76;102485.03;4995741;28;20157;-72
2021/09/06 00:48:17;;;;;;;31.23;18.38;;;;;;;10.55;92.61;102480.75;4995763;28;20075;-72
2021/09/06 00:50:42;;;;;;;27.33;16.25;;;;;;;10.54;92.39;102479.91;4995583;28;20041;-72
2021/09/06 00:53:08;;;;;;;29.02;17.77;;;;;;;10.52;92.28;102484.47;4995417;28;20364;-72
2021/09/06 00:55:34;;;;;;;30.80;18.08;;;;;;;10.54;92.68;102479.06;4995334;28;20423;-72
2021/09/06 00:57:59;;;;;;;26.95;15.02;;;;;;;10.50;92.28;102483.72;4995452;28;20030;-72
2021/09/06 01:00:25;;;;;;;27.38;16.00;;;;;;;10.48;91.93;102480.31;4995002;28;20037;-72
2021/09/06 01:02:50;;;;;;;30.27;16.13;;;;;;;10.49;91.76;102481.16;4994172;28;20038;-72
2021/09/06 01:05:16;;;;;;;28.17;17.13;;;;;;;10.48;92.07;102477.66;4995386;28;20042;-72
2021/09/06 01:07:42;;;;;;;30.60;17.40;;;;;;;10.48;92.16;102487.41;4994274;28;20034;-72
2021/09/06 01:10:10;;;;;;;36.88;18.52;;;;;;;10.46;91.87;102486.69;4995329;28;20030;-72
2021/09/06 01:12:37;;;;;;;27.83;15.68;;;;;;;10.45;91.95;102487.63;4994803;28;20033;-72
2021/09/06 01:15:04;;;;;;;33.50;18.42;;;;;;;10.45;92.11;102487.63;4995655;28;20038;-72
2021/09/06 01:17:30;;;;;;;36.85;18.63;;;;;;;10.43;92.43;102486.88;4994563;28;20033;-73
2021/09/06 01:19:55;;;;;;;28.85;17.77;;;;;;;10.40;92.20;102486.13;4995356;28;20034;-73
2021/09/06 01:22:21;;;;;;;33.42;17.52;;;;;;;10.39;92.14;102484.41;4994379;28;20383;-71
2021/09/06 01:24:46;;;;;;;29.65;16.70;;;;;;;10.37;92.02;102480.13;4995047;28;20100;-73
2021/09/06 01:27:14;;;;;;;30.38;17.48;;;;;;;10.36;92.28;102483.72;5010243;28;20023;-73
2021/09/06 01:29:40;;;;;;;27.95;16.17;;;;;;;10.31;91.98;102481.34;4994759;28;20026;-73
2021/09/06 01:32:06;;;;;;;26.02;14.98;;;;;;;10.31;91.91;102480.50;4994922;28;20026;-72
2021/09/06 01:34:32;;;;;;;39.90;20.90;;;;;;;10.30;92.21;102484.09;4994531;28;20042;-73
2021/09/06 01:36:58;;;;;;;35.88;19.90;;;;;;;10.28;92.34;102483.34;4993377;28;20030;-71
2021/09/06 01:39:23;;;;;;;41.72;21.65;;;;;;;10.27;92.08;102484.28;4994165;28;20026;-72
2021/09/06 01:41:48;;;;;;;30.20;17.23;;;;;;;10.24;92.16;102483.53;4994516;28;20034;-73
2021/09/06 01:44:14;;;;;;;27.40;16.70;;;;;;;10.22;91.71;102481.94;4994489;28;20096;-73
2021/09/06 01:46:39;;;;;;;29.23;16.10;;;;;;;10.21;91.74;102482.88;4994080;28;20030;-74
2021/09/06 01:49:05;;;;;;;40.63;21.00;;;;;;;10.21;92.04;102490.84;4994384;28;20046;-73
2021/09/06 01:51:30;;;;;;;27.60;15.95;;;;;;;10.18;91.91;102486.59;4994040;28;20058;-73
2021/09/06 01:53:56;;;;;;;32.85;18.35;;;;;;;10.18;91.60;102485.72;4994670;28;20041;-73
2021/09/06 01:56:23;;;;;;;37.30;21.10;;;;;;;10.18;92.30;102494.56;4994449;28;20049;-73
2021/09/06 01:58:49;;;;;;;40.35;21.02;;;;;;;10.21;92.89;102490.84;4994395;28;20101;-73
2021/09/06 02:01:15;;;;;;;46.92;23.80;;;;;;;10.23;93.98;102487.16;4994336;28;20474;-73
2021/09/06 02:03:40;;;;;;;34.55;18.85;;;;;;;10.21;93.62;102494.38;4993327;28;20117;-73
2021/09/06 02:06:06;;;;;;;43.75;22.80;;;;;;;10.20;93.20;102499.81;4994409;28;20033;-72
2021/09/06 02:08:31;;;;;;;34.15;18.40;;;;;;;10.19;93.07;102496.25;4993413;28;20042;-74
2021/09/06 02:10:57;;;;;;;36.05;19.00;;;;;;;10.18;92.56;102491.91;4994329;28;20451;-73
2021/09/06 02:13:22;;;;;;;30.90;16.70;;;;;;;10.16;92.38;102491.13;4994301;28;20457;-73
2021/09/06 02:15:47;;;;;;;34.28;19.00;;;;;;;10.12;92.30;102486.97;4993490;28;20035;-73
2021/09/06 02:18:13;;;;;;;37.17;18.45;;;;;;;10.11;92.46;102495.91;4994194;28;20034;-73
2021/09/06 02:20:39;;;;;;;35.15;19.02;;;;;;;10.12;92.69;102491.44;4993226;28;20092;-73
2021/09/06 02:23:05;;;;;;;42.28;20.77;;;;;;;10.12;92.20;102494.09;4993983;28;20034;-73
2021/09/06 02:25:30;;;;;;;35.75;19.33;;;;;;;10.12;92.60;102496.75;4993365;28;20417;-73
2021/09/06 02:27:56;;;;;;;35.30;17.98;;;;;;;10.10;92.42;102493.34;4994161;28;20033;-73
2021/09/06 02:30:21;;;;;;;36.42;19.65;;;;;;;10.09;93.07;102499.59;4992725;28;20037;-73
2021/09/06 02:32:47;;;;;;;36.15;17.52;;;;;;;10.05;92.80;102496.28;4993294;28;20038;-71
2021/09/06 02:35:12;;;;;;;45.20;22.20;;;;;;;10.05;93.07;102496.28;4993918;28;20113;-71
2021/09/06 02:37:37;;;;;;;46.75;22.77;;;;;;;10.01;92.90;102487.63;4992880;28;20038;-72
2021/09/06 02:40:03;;;;;;;36.50;20.83;;;;;;;9.99;92.99;102486.88;4993615;28;20022;-72
2021/09/06 02:42:29;;;;;;;34.03;17.38;;;;;;;9.97;92.82;102491.44;4993673;28;20030;-71
2021/09/06 02:44:55;;;;;;;41.88;20.83;;;;;;;9.96;92.49;102491.53;4993631;28;20462;-72
2021/09/06 02:47:20;;;;;;;31.30;17.50;;;;;;;9.94;92.89;102493.44;4993308;28;20030;-72
2021/09/06 02:49:45;;;;;;;45.05;22.88;;;;;;;9.93;92.99;102495.25;4992971;28;20042;-72
2021/09/06 02:52:11;;;;;;;32.88;18.67;;;;;;;9.92;92.87;102495.34;4993202;28;20022;-72
2021/09/06 02:54:36;;;;;;;34.47;17.77;;;;;;;9.91;92.65;102502.44;4992892;28;20455;-72
2021/09/06 02:57:02;;;;;;;34.10;18.55;;;;;;;9.92;92.60;102492.69;4993546;28;20058;-71
2021/09/06 02:59:27;;;;;;;32.67;17.23;;;;;;;9.92;92.73;102498.84;4993412;28;20034;-72
2021/09/06 03:01:52;;;;;;;44.42;23.15;;;;;;;9.92;92.70;102495.34;4992515;28;20389;-73
2021/09/06 03:04:18;;;;;;;42.85;22.42;;;;;;;9.92;93.63;102501.50;4993480;28;20050;-73
2021/09/06 03:06:44;;;;;;;37.60;19.63;;;;;;;9.86;93.41;102493.91;4992735;28;20039;-72
2021/09/06 03:09:10;;;;;;;35.88;19.65;;;;;;;9.84;93.12;102504.63;4993271;28;20132;-72
2021/09/06 03:11:35;;;;;;;42.40;21.77;;;;;;;9.82;93.14;102503.00;4992717;28;20424;-72
2021/09/06 03:14:00;;;;;;;37.70;20.73;;;;;;;9.80;93.20;102497.78;4993268;28;20108;-72
2021/09/06 03:16:26;;;;;;;41.50;21.75;;;;;;;9.77;93.30;102491.81;4992918;28;20036;-72
2021/09/06 03:18:51;;;;;;;39.90;19.67;;;;;;;9.74;93.33;102487.53;4992513;28;20455;-72
2021/09/06 03:21:17;;;;;;;40.75;21.33;;;;;;;9.72;93.29;102497.41;4993336;28;20026;-72
2021/09/06 03:23:43;;;;;;;44.92;22.67;;;;;;;9.71;93.20;102493.88;4991240;28;20027;-72
2021/09/06 03:26:09;;;;;;;52.42;25.27;;;;;;;9.72;94.09;102494.75;4992933;28;20042;-72
2021/09/06 03:28:35;;;;;;;37.35;19.40;;;;;;;9.70;93.74;102491.31;4993079;28;20344;-72
2021/09/06 03:31:00;;;;;;;29.25;16.00;;;;;;;9.67;93.22;102492.38;4994937;28;20114;-71
2021/09/06 03:33:25;;;;;;;40.05;20.33;;;;;;;9.66;92.96;102487.16;4997163;28;20348;-71
2021/09/06 03:35:51;;;;;;;29.92;16.48;;;;;;;9.66;93.00;102485.34;4996188;28;20033;-74
2021/09/06 03:38:16;;;;;;;34.13;17.27;;;;;;;9.68;92.99;102487.91;4997038;28;20513;-73
2021/09/06 03:40:42;;;;;;;36.88;18.67;;;;;;;9.68;93.17;102491.41;4996165;28;20026;-71
2021/09/06 03:43:07;;;;;;;34.75;17.85;;;;;;;9.68;93.19;102495.88;4996937;28;20062;-72
2021/09/06 03:45:32;;;;;;;30.30;17.10;;;;;;;9.67;92.70;102487.06;4996883;28;20081;-72
2021/09/06 03:47:58;;;;;;;38.38;19.55;;;;;;;9.65;93.22;102498.72;4996283;28;20038;-72
2021/09/06 03:50:23;;;;;;;36.15;19.42;;;;;;;9.64;93.02;102495.22;4996862;28;20049;-72
2021/09/06 03:52:49;;;;;;;32.45;17.52;;;;;;;9.64;93.02;102491.69;4996204;28;20038;-74
2021/09/06 03:55:15;;;;;;;39.67;20.15;;;;;;;9.63;93.02;102490.84;4996606;28;20038;-73
2021/09/06 03:57:40;;;;;;;32.00;16.33;;;;;;;9.62;92.83;102491.78;4996009;28;20041;-72
2021/09/06 04:00:07;;;;;;;36.70;18.17;;;;;;;9.63;92.83;102495.28;4996397;28;20039;-73
2021/09/06 04:02:33;;;;;;;29.50;16.05;;;;;;;9.62;92.90;102498.91;4996581;28;20031;-72
2021/09/06 04:04:59;;;;;;;33.97;18.23;;;;;;;9.59;92.81;102497.28;4995960;28;20056;-73
2021/09/06 04:07:26;;;;;;;29.45;16.17;;;;;;;9.59;92.94;102496.44;4996505;28;20096;-72
2021/09/06 04:09:51;;;;;;;36.35;19.38;;;;;;;9.57;93.06;102493.00;4995859;28;20041;-73
2021/09/06 04:12:17;;;;;;;36.72;21.27;;;;;;;9.55;93.32;102490.44;4996420;28;20030;-72
2021/09/06 04:14:42;;;;;;;35.78;18.88;;;;;;;9.52;93.29;102496.81;4995880;28;20027;-73
2021/09/06 04:17:08;;;;;;;37.45;21.10;;;;;;;9.51;93.35;102496.91;4996545;28;20474;-74
2021/09/06 04:19:33;;;;;;;35.78;19.33;;;;;;;9.50;93.85;102489.88;4996397;28;20058;-72
2021/09/06 04:21:59;;;;;;;37.92;17.80;;;;;;;9.47;93.57;102504.19;4995638;28;20085;-72
2021/09/06 04:24:25;;;;;;;36.38;19.10;;;;;;;9.46;93.55;102494.50;4996294;28;20034;-72
2021/09/06 04:26:51;;;;;;;46.63;22.48;;;;;;;9.47;93.91;102506.00;4995654;28;20068;-72
2021/09/06 04:29:16;;;;;;;34.40;19.02;;;;;;;9.46;94.17;102504.28;4996151;28;20045;-72
2021/09/06 04:31:42;;;;;;;42.78;20.75;;;;;;;9.45;93.93;102506.09;4995811;28;20026;-72
2021/09/06 04:34:08;;;;;;;33.60;18.77;;;;;;;9.42;93.76;102514.25;4995466;28;20054;-73
2021/09/06 04:36:33;;;;;;;33.97;18.25;;;;;;;9.40;93.35;102512.63;4995988;28;20035;-73
2021/09/06 04:38:59;;;;;;;38.28;20.00;;;;;;;9.39;93.31;102511.78;4995364;28;20037;-73
2021/09/06 04:41:24;;;;;;;42.33;20.52;;;;;;;9.39;93.93;102513.56;4995397;28;20521;-73
2021/09/06 04:43:50;;;;;;;39.33;21.20;;;;;;;9.38;93.63;102519.84;4994396;28;20364;-73
2021/09/06 04:46:15;;;;;;;37.35;17.65;;;;;;;9.34;93.76;102519.13;4994861;28;20089;-73
2021/09/06 04:48:41;;;;;;;30.67;17.10;;;;;;;9.34;93.48;102520.00;4995760;28;20037;-73
2021/09/06 04:51:07;;;;;;;32.35;18.33;;;;;;;9.32;93.53;102526.34;4995159;28;20054;-73
2021/09/06 04:53:32;;;;;;;31.38;16.27;;;;;;;9.31;93.67;102529.94;4995277;28;20117;-73
2021/09/06 04:55:57;;;;;;;36.85;18.65;;;;;;;9.31;93.77;102530.78;4995037;28;20494;-73
2021/09/06 04:58:22;;;;;;;32.92;17.85;;;;;;;9.32;93.89;102529.00;4995511;28;20026;-73
2021/09/06 05:00:48;;;;;;;31.27;18.05;;;;;;;9.29;93.78;102522.06;4994976;28;20038;-74
2021/09/06 05:03:13;;;;;;;32.65;17.20;;;;;;;9.28;93.66;102527.47;4995520;28;20467;-73
2021/09/06 05:05:39;;;;;;;27.02;15.50;;;;;;;9.27;93.62;102525.75;4995668;28;20077;-73
2021/09/06 05:08:04;;;;;;;39.10;19.10;;;;;;;9.28;93.86;102524.81;4977470;28;20026;-73
2021/09/06 05:10:31;;;;;;;37.90;20.23;;;;;;;9.27;93.79;102525.75;4995431;28;20058;-73
2021/09/06 05:12:57;;;;;;;36.92;18.30;;;;;;;9.26;94.04;102527.56;5009565;28;20459;-73
2021/09/06 05:15:22;;;;;;;39.85;20.35;;;;;;;9.28;93.89;102533.63;4995531;28;20045;-73
2021/09/06 05:17:48;;;;;;;36.17;19.35;;;;;;;9.31;94.18;102527.28;4994948;28;20026;-73
2021/09/06 05:20:14;;;;;;;38.58;19.40;;;;;;;9.31;94.45;102536.09;4995191;28;20482;-73
2021/09/06 05:22:39;;;;;;;35.97;18.92;;;;;;;9.31;94.22;102533.44;4995089;28;20034;-73
2021/09/06 05:25:05;;;;;;;42.83;21.30;;;;;;;9.35;94.46;102534.13;4994210;28;20116;-73
2021/09/06 05:27:30;;;;;;;50.38;23.73;;;;;;;9.38;94.63;102536.63;4995040;28;20463;-73
2021/09/06 05:29:56;;;;;;;45.55;22.35;;;;;;;9.43;94.85;102545.16;4994437;28;20034;-71
2021/09/06 05:32:21;;;;;;;48.45;23.00;;;;;;;9.49;95.27;102542.16;4994957;28;20034;-72
2021/09/06 05:34:46;;;;;;;55.50;23.35;;;;;;;9.52;95.45;102544.63;5010132;28;20038;-72
2021/09/06 05:37:12;;;;;;;47.83;23.60;;;;;;;9.54;95.41;102547.22;4994228;28;20034;-72
2021/09/06 05:39:37;;;;;;;45.22;21.88;;;;;;;9.57;95.31;102554.13;4994843;28;20030;-71
2021/09/06 05:42:03;;;;;;;50.13;24.00;;;;;;;9.61;95.36;102558.31;4994189;28;20032;-71
2021/09/06 05:44:29;;;;;;;45.80;22.17;;;;;;;9.65;95.43;102554.53;5009783;28;20113;-73
2021/09/06 05:46:55;;;;;;;48.63;22.92;;;;;;;9.71;95.73;102559.47;4994026;28;20057;-72
2021/09/06 05:49:20;;;;;;;48.75;24.70;;;;;;;9.75;95.86;102560.16;4993608;28;20129;-71
2021/09/06 05:51:45;;;;;;;52.70;25.20;;;;;;;9.79;96.14;102564.34;4994651;28;20081;-72
2021/09/06 05:54:11;;;;;;;51.75;25.20;;;;;;;9.84;96.23;102556.97;4992027;28;20037;-73
2021/09/06 05:56:36;;;;;;;50.53;24.10;;;;;;;9.89;96.14;102552.19;4994546;28;20036;-74
2021/09/06 05:59:02;;;;;;;55.25;24.88;;;;;;;9.96;96.13;102553.56;4993861;28;20076;-71
2021/09/06 06:01:27;;;;;;;57.08;25.73;;;;;;;10.07;96.27;102552.88;4994393;28;20022;-71
2021/09/06 06:03:52;;;;;;;51.53;23.27;;;;;;;10.17;96.52;102559.34;4994263;28;20050;-71
2021/09/06 06:06:18;;;;;;;59.22;26.55;;;;;;;10.28;96.44;102564.00;4992501;28;20057;-72
2021/09/06 06:08:44;;;;;;;58.47;27.00;;;;;;;10.38;96.41;102577.63;4994304;28;20517;-72
2021/09/06 06:11:09;;;;;;;61.47;27.50;;;;;;;10.46;96.67;102572.69;4993610;28;20050;-72
2021/09/06 06:13:34;;;;;;;73.43;30.27;;;;;;;10.55;97.12;102576.56;4994182;28;20026;-72
2021/09/06 06:16:00;;;;;;;61.08;29.75;;;;;;;10.65;96.92;102582.19;4993263;28;20030;-72
2021/09/06 06:18:25;;;;;;;63.58;31.13;;;;;;;10.73;97.10;102582.53;4993723;28;20041;-72
2021/09/06 06:20:50;;;;;;;62.70;30.55;;;;;;;10.81;97.14;102592.69;4993963;28;20142;-71
2021/09/06 06:23:16;;;;;;;65.35;29.73;;;;;;;10.87;97.19;102579.84;4993354;28;20569;-71
2021/09/06 06:25:41;;;;;;;67.75;31.55;;;;;;;10.96;97.21;102577.53;4994263;28;20030;-72
2021/09/06 06:28:08;;;;;;;66.88;30.70;;;;;;;11.03;97.39;102578.84;4993294;28;20066;-72
2021/09/06 06:30:33;;;;;;;79.38;33.78;;;;;;;11.12;97.20;102580.91;4993868;28;20037;-72
2021/09/06 06:32:58;;;;;;;69.00;31.75;;;;;;;11.20;97.54;102586.63;4993101;28;20030;-73
2021/09/06 06:35:24;;;;;;;74.45;32.33;;;;;;;11.29;97.63;102582.50;4993452;28;20053;-72
2021/09/06 06:37:49;;;;;;;79.43;33.95;;;;;;;11.41;97.42;102594.16;4993796;28;20057;-72
2021/09/06 06:40:15;;;;;;;71.85;33.08;;;;;;;11.52;97.62;102588.94;4993877;28;20073;-72
2021/09/06 06:42:40;;;;;;;71.50;34.03;;;;;;;11.63;97.92;102588.25;4993649;28;20034;-72
2021/09/06 06:45:06;;;;;;;87.40;37.63;;;;;;;11.75;97.75;102594.56;4994246;28;20039;-73
2021/09/06 06:47:32;;;;;;;74.78;34.00;;;;;;;11.90;98.21;102598.84;4994101;28;20033;-72
2021/09/06 06:49:57;;;;;;;65.75;33.42;;;;;;;12.01;98.03;102600.81;4993609;28;20034;-73
2021/09/06 06:52:22;;;;;;;61.42;30.60;;;;;;;12.11;98.23;102599.22;4992558;28;20037;-72
2021/09/06 06:54:48;;;;;;;64.70;31.02;;;;;;;12.24;98.00;102590.34;4993259;28;20578;-72
2021/09/06 06:57:13;;;;;;;66.07;31.05;;;;;;;12.35;97.69;102593.97;4992891;28;20034;-72
2021/09/06 06:59:38;;;;;;;57.03;29.75;;;;;;;12.48;97.63;102595.78;4993363;28;20355;-73
2021/09/06 07:02:04;;;;;;;50.08;26.75;;;;;;;12.61;97.25;102593.94;4992729;28;20060;-74
2021/09/06 07:04:30;;;;;;;52.13;28.55;;;;;;;12.76;96.75;102599.16;4992668;28;20055;-72
2021/09/06 07:06:55;;;;;;;51.97;27.13;;;;;;;12.93;96.61;102600.59;4993030;28;20367;-72
2021/09/06 07:09:20;;;;;;;47.97;25.67;;;;;;;13.04;95.78;102604.19;4991308;28;20042;-72
2021/09/06 07:11:46;;;;;;;44.95;25.85;;;;;;;13.17;94.99;102597.97;4993137;28;20030;-73
2021/09/06 07:14:11;;;;;;;44.15;24.38;;;;;;;13.31;94.89;102610.28;4992602;28;20490;-72
2021/09/06 07:16:36;;;;;;;42.83;24.27;;;;;;;13.44;93.84;102616.47;4993216;28;20026;-72
2021/09/06 07:19:02;;;;;;;37.13;23.55;;;;;;;13.58;93.50;102600.25;4993052;28;20032;-72
2021/09/06 07:21:27;;;;;;;40.63;24.95;;;;;;;13.72;92.98;102614.41;4992458;28;20041;-72
2021/09/06 07:23:53;;;;;;;36.67;23.05;;;;;;;13.86;92.31;102616.00;4992732;28;20030;-72
2021/09/06 07:26:18;;;;;;;35.97;21.95;;;;;;;14.01;91.41;102614.00;4992359;28;20080;-72
2021/09/06 07:28:43;;;;;;;40.53;24.27;;;;;;;14.10;90.30;102622.13;4993484;28;20069;-72
2021/09/06 07:31:10;;;;;;;35.33;22.45;;;;;;;14.21;90.40;102615.97;4992551;28;20062;-72
2021/09/06 07:33:36;;;;;;;35.63;21.85;;;;;;;14.34;89.28;102617.69;4992766;28;20490;-72
2021/09/06 07:36:02;;;;;;;35.10;22.67;;;;;;;14.44;89.81;102616.81;4992999;28;20023;-72
2021/09/06 07:38:27;;;;;;;37.97;22.60;;;;;;;14.55;89.46;102626.69;4992336;28;20033;-72
2021/09/06 07:40:53;;;;;;;39.47;22.92;;;;;;;14.70;89.75;102621.13;4992988;28;20031;-72
2021/09/06 07:43:19;;;;;;;33.72;21.90;;;;;;;14.84;88.25;102630.72;4992053;28;20036;-72
2021/09/06 07:45:46;;;;;;;38.75;21.75;;;;;;;14.98;87.66;102628.63;4992978;28;20109;-72
2021/09/06 07:48:12;;;;;;;31.05;21.05;;;;;;;15.11;87.71;102627.66;4992025;28;20041;-72
2021/09/06 07:50:38;;;;;;;31.83;21.52;;;;;;;15.22;87.71;102627.59;4992932;28;20026;-72
2021/09/06 07:53:03;;;;;;;33.67;20.65;;;;;;;15.34;87.11;102631.09;4992785;28;20035;-72
2021/09/06 07:55:28;;;;;;;34.45;21.73;;;;;;;15.48;86.94;102632.63;4991966;28;20113;-73
2021/09/06 07:57:54;;;;;;;36.40;21.17;;;;;;;15.57;86.79;102645.31;4991224;28;20034;-72
2021/09/06 08:00:19;;;;;;;29.42;20.92;;;;;;;15.65;86.81;102641.97;4990952;28;20080;-72
2021/09/06 08:02:49;;;;;;;32.85;21.27;;;;;;;15.74;85.76;102648.41;4992881;28;20162;-72
2021/09/06 08:05:21;;;;;;;29.65;20.02;;;;;;;15.91;84.92;102653.22;4992095;28;20054;-72
2021/09/06 08:07:47;;;;;;;31.27;20.40;;;;;;;16.31;84.26;102654.31;4993025;28;20117;-72
2021/09/06 08:10:12;;;;;;;28.88;20.63;;;;;;;17.08;81.57;102655.66;4992076;28;20026;-72
2021/09/06 08:12:38;;;;;;;27.90;19.52;;;;;;;17.89;77.64;102663.53;4992789;28;20053;-72
2021/09/06 08:15:06;;;;;;;30.00;19.58;;;;;;;18.55;75.38;102667.22;4992619;28;20034;-73
2021/09/06 08:17:34;;;;;;;29.80;19.80;;;;;;;18.97;73.75;102666.78;4994492;28;20041;-71
2021/09/06 08:19:59;;;;;;;29.30;18.38;;;;;;;19.38;70.62;102671.78;4996211;28;20030;-72
2021/09/06 08:22:25;;;;;;;27.30;18.65;;;;;;;19.54;70.77;102666.53;4995311;28;20035;-72
2021/09/06 08:24:50;;;;;;;26.25;17.48;;;;;;;19.60;70.41;102673.19;4995867;28;20026;-72
2021/09/06 08:27:15;;;;;;;30.67;19.15;;;;;;;19.53;70.71;102678.34;4995542;28;20449;-73
2021/09/06 08:29:41;;;;;;;23.63;17.73;;;;;;;19.43;68.53;102676.72;4996603;28;20026;-72
2021/09/06 08:32:06;;;;;;;27.70;17.42;;;;;;;19.42;69.75;102683.94;4995986;28;20027;-73
2021/09/06 08:34:32;;;;;;;24.75;17.85;;;;;;;19.54;69.90;102682.75;4994046;28;20161;-73
2021/09/06 08:36:57;;;;;;;26.80;18.13;;;;;;;19.76;69.88;102685.13;4995862;28;20449;-72
2021/09/06 08:39:23;;;;;;;24.17;18.08;;;;;;;19.98;70.50;102681.97;5010323;28;20034;-74
2021/09/06 08:41:49;;;;;;;27.55;17.95;;;;;;;20.24;67.92;102681.13;4995647;28;20026;-73
2021/09/06 08:44:15;;;;;;;24.15;16.35;;;;;;;20.52;67.75;102678.28;4995219;28;20034;-74
2021/09/06 08:46:41;;;;;;;27.75;17.13;;;;;;;21.00;66.27;102674.13;4996204;28;20034;-73
2021/09/06 08:49:07;;;;;;;22.73;15.15;;;;;;;21.45;63.26;102675.59;4995481;28;20088;-73
2021/09/06 08:51:34;;;;;;;19.58;14.48;;;;;;;21.97;59.45;102676.31;4995147;28;20038;-73
2021/09/06 08:53:59;;;;;;;20.92;15.60;;;;;;;22.47;59.55;102686.09;4995254;28;20038;-73
2021/09/06 08:56:31;;;;;;;23.80;15.18;;;;;;;23.37;56.24;102674.00;5009727;28;20036;-73
2021/09/06 08:58:57;;;;;;;20.00;14.98;;;;;;;24.41;52.67;102680.78;4995003;28;20037;-73
2021/09/06 09:01:22;;;;;;;24.73;15.75;;;;;;;25.02;49.20;102680.56;4995006;28;20117;-73
2021/09/06 09:03:47;;;;;;;24.65;15.10;;;;;;;26.17;47.69;102680.63;4995283;28;20030;-73
2021/09/06 09:06:13;;;;;;;24.25;15.00;;;;;;;26.97;46.69;102685.72;4995464;28;20069;-72
2021/09/06 09:08:38;;;;;;;20.38;14.43;;;;;;;27.64;45.62;102689.47;4994865;28;20030;-74
2021/09/06 09:11:06;;;;;;;20.70;14.52;;;;;;;27.67;41.88;102682.75;4995631;28;20052;-73
2021/09/06 09:13:34;;;;;;;19.00;13.68;;;;;;;27.92;41.72;102681.06;4994365;28;20471;-72
2021/09/06 09:16:01;;;;;;;18.08;13.60;;;;;;;28.13;42.16;102676.47;4995316;28;20033;-72
2021/09/06 09:18:29;;;;;;;18.73;13.18;;;;;;;27.99;41.47;102674.78;4994553;28;20026;-73
2021/09/06 09:21:04;;;;;;;17.98;12.48;;;;;;;28.39;39.25;102677.44;4995223;28;20027;-72
2021/09/06 09:23:36;;;;;;;19.55;13.80;;;;;;;28.58;40.10;102673.81;4994701;28;20034;-73
2021/09/06 09:26:03;;;;;;;16.92;13.65;;;;;;;28.70;40.25;102673.19;4995214;28;20455;-72
2021/09/06 09:28:29;;;;;;;17.27;13.68;;;;;;;28.66;41.53;102680.97;4993717;28;20030;-73
2021/09/06 09:31:07;;;;;;;17.77;12.90;;;;;;;28.61;39.54;102672.56;4995205;28;20026;-73
2021/09/06 09:33:42;;;;;;;16.20;12.20;;;;;;;28.28;41.56;102671.56;4994317;28;20022;-72
2021/09/06 09:36:07;;;;;;;18.17;12.57;;;;;;;27.97;40.43;102669.53;4994937;28;20038;-72
2021/09/06 09:38:35;;;;;;;20.38;12.45;;;;;;;28.77;39.26;102665.78;4992954;28;20101;-73
2021/09/06 09:41:03;;;;;;;19.83;13.10;;;;;;;28.79;38.35;102667.22;4994983;28;20034;-72
2021/09/06 09:43:30;;;;;;;17.73;13.63;;;;;;;28.92;38.79;102665.50;4994059;28;20459;-73
2021/09/06 09:46:03;;;;;;;17.17;13.20;;;;;;;29.20;39.59;102665.97;4994666;28;20069;-73
2021/09/06 09:48:29;;;;;;;18.00;13.35;;;;;;;29.10;37.36;102668.34;4994119;28;20088;-73
2021/09/06 09:50:55;;;;;;;20.50;13.70;;;;;;;29.50;36.90;102662.63;4994766;28;20026;-72
2021/09/06 09:53:21;;;;;;;16.08;12.77;;;;;;;29.64;40.16;102668.00;4994855;28;20034;-73
2021/09/06 09:55:47;;;;;;;21.35;13.90;;;;;;;29.95;35.67;102663.53;4994450;28;20030;-72
2021/09/06 09:58:14;;;;;;;18.38;12.90;;;;;;;29.69;37.14;102665.41;4993343;28;20034;-72
2021/09/06 10:00:41;;;;;;;20.73;13.15;;;;;;;29.66;37.72;102655.75;4993838;28;20034;-73
2021/09/06 10:03:07;;;;;;;22.33;14.75;;;;;;;29.82;37.21;102653.53;4994613;28;20039;-73
2021/09/06 10:05:36;;;;;;;20.35;13.85;;;;;;;29.71;37.05;102649.59;4993519;28;20062;-73
2021/09/06 10:08:05;;;;;;;18.73;13.70;;;;;;;29.26;37.94;102653.31;4994175;28;20137;-72
2021/09/06 10:10:36;;;;;;;18.88;13.90;;;;;;;29.52;37.99;102652.25;4993759;28;20030;-72
2021/09/06 10:13:15;;;;;;;16.35;12.20;;;;;;;29.62;37.24;102650.91;4994100;28;20093;-73
2021/09/06 10:15:43;;;;;;;15.10;11.70;;;;;;;29.64;36.78;102654.28;4993628;28;20034;-73
2021/09/06 10:18:18;;;;;;;19.35;12.98;;;;;;;29.04;36.97;102655.53;4993681;28;20394;-73
2021/09/06 10:20:44;;;;;;;16.90;12.63;;;;;;;29.19;36.48;102652.47;4993470;28;20023;-73
2021/09/06 10:23:11;;;;;;;16.10;12.10;;;;;;;28.64;38.56;102656.53;4994046;28;20030;-72
2021/09/06 10:25:39;;;;;;;26.35;13.32;;;;;;;28.36;38.91;102658.72;4993455;28;20109;-73
2021/09/06 10:28:06;;;;;;;18.05;13.23;;;;;;;27.74;41.04;102654.38;4993897;28;20022;-73
2021/09/06 10:30:53;;;;;;;20.27;13.68;;;;;;;27.76;40.90;102665.09;4993196;28;20038;-73
2021/09/06 10:33:30;;;;;;;23.80;13.18;;;;;;;27.94;40.13;102657.06;4993939;28;20033;-72
2021/09/06 10:36:17;;;;;;;21.38;13.18;;;;;;;28.32;38.54;102658.31;4993978;28;20061;-72
2021/09/06 10:38:45;;;;;;;19.08;14.35;;;;;;;28.34;36.63;102663.59;4993248;28;20410;-72
2021/09/06 10:41:14;;;;;;;15.27;10.63;;;;;;;28.73;35.02;102662.63;4992831;28;20030;-72
2021/09/06 10:43:45;;;;;;;22.80;12.80;;;;;;;28.39;38.40;102661.03;4992988;28;20030;-72
2021/09/06 10:46:12;;;;;;;24.27;12.07;;;;;;;28.15;40.16;102658.75;4993534;28;20456;-72
2021/09/06 10:48:38;;;;;;;18.75;12.10;;;;;;;28.01;38.19;102645.34;4992963;28;20032;-72
2021/09/06 10:51:04;;;;;;;18.88;11.77;;;;;;;27.74;39.56;102646.16;4993505;28;20052;-72
2021/09/06 10:53:30;;;;;;;16.70;11.40;;;;;;;27.79;37.49;102645.53;4993766;28;20120;-73
2021/09/06 10:55:57;;;;;;;13.85;10.50;;;;;;;27.79;40.88;102645.53;4993424;28;20026;-72
2021/09/06 10:58:26;;;;;;;19.52;12.50;;;;;;;27.39;40.84;102646.34;4993563;28;20026;-73
2021/09/06 11:00:57;;;;;;;17.05;12.10;;;;;;;26.70;41.08;102647.38;4992845;28;20117;-72
2021/09/06 11:03:24;;;;;;;14.98;11.73;;;;;;;26.21;42.21;102647.34;4993417;28;20027;-73
2021/09/06 11:05:57;;;;;;;15.55;10.07;;;;;;;25.84;45.16;102654.78;4992885;28;20054;-73
2021/09/06 11:08:28;;;;;;;14.68;11.25;;;;;;;25.61;47.35;102649.53;4993552;28;20149;-72